Time;durP1;ratioP1;P1;durP2;ratioP2;P2;SDS_P1;SDS_P2;PMS_P1;PMS_P2;Temp;Humidity;BMP_temperature;BMP_pressure;BME280_temperature;BME280_humidity;BME280_pressure;Samples;Min_cycle;Max_cycle;Signal;HPM_P1;HPM_P2
2023/10/23 00:01:02;;;;;;;14.03;8.00;;;;;;;10.37;100.00;100391.10;4867357;57;1142924;-73
2023/10/23 00:06:09;;;;;;;11.43;6.70;;;;;;;10.36;100.00;100396.03;4862339;57;1143207;-74
2023/10/23 00:11:32;;;;;;;10.00;6.60;;;;;;;10.35;100.00;100399.16;4718069;60;1142933;-73
2023/10/23 00:16:39;;;;;;;9.55;6.10;;;;;;;10.35;100.00;100396.98;4748938;60;1142986;-73
2023/10/23 00:21:44;;;;;;;10.05;5.78;;;;;;;10.35;100.00;100395.19;4757484;60;1140712;-72
2023/10/23 00:26:50;;;;;;;20.02;5.97;;;;;;;10.35;100.00;100391.22;4901738;58;1143249;-73
2023/10/23 00:31:56;;;;;;;9.53;5.15;;;;;;;10.37;100.00;100408.28;4867312;59;1142909;-72
2023/10/23 00:37:01;;;;;;;7.20;4.97;;;;;;;10.37;100.00;100403.00;4806160;59;1141547;-74
2023/10/23 00:42:07;;;;;;;9.63;5.53;;;;;;;10.38;100.00;100406.00;4791867;60;1140999;-75
2023/10/23 00:47:16;;;;;;;11.40;4.90;;;;;;;10.39;100.00;100397.11;4712394;60;1142342;-74
2023/10/23 00:52:21;;;;;;;13.97;5.00;;;;;;;10.39;100.00;100412.47;4813488;59;1143050;-71
2023/10/23 00:57:27;;;;;;;7.40;4.37;;;;;;;10.40;100.00;100406.22;4790755;59;1143104;-73
2023/10/23 01:02:32;;;;;;;11.33;4.33;;;;;;;10.43;100.00;100403.34;4822072;59;1140989;-73
2023/10/23 01:07:38;;;;;;;7.33;4.00;;;;;;;10.43;100.00;100390.13;4885660;58;1143281;-74
2023/10/23 01:12:44;;;;;;;6.03;4.23;;;;;;;10.47;100.00;100401.30;4794745;58;1141050;-72
2023/10/23 01:17:51;;;;;;;11.80;4.30;;;;;;;10.48;100.00;100402.98;4910854;58;1141050;-74
2023/10/23 01:23:00;;;;;;;7.25;4.08;;;;;;;10.50;100.00;100401.91;4903552;57;1143105;-73
2023/10/23 01:28:06;;;;;;;9.03;4.20;;;;;;;10.52;100.00;100400.47;4852102;57;1140895;-71
2023/10/23 01:33:12;;;;;;;7.10;3.53;;;;;;;10.51;100.00;100403.59;4796149;59;1140671;-74
2023/10/23 01:38:19;;;;;;;8.03;3.83;;;;;;;10.48;100.00;100403.83;4799050;60;1140793;-71
2023/10/23 01:43:25;;;;;;;9.60;4.47;;;;;;;10.48;100.00;100409.12;4733712;59;1141067;-71
2023/10/23 01:48:31;;;;;;;4.15;3.27;;;;;;;10.47;100.00;100415.84;4791042;59;1140831;-74
2023/10/23 01:53:36;;;;;;;5.87;3.13;;;;;;;10.45;100.00;100417.77;4780808;60;1140960;-72
2023/10/23 01:58:42;;;;;;;6.20;4.33;;;;;;;10.46;100.00;100416.80;4732203;60;1140772;-72
2023/10/23 02:03:48;;;;;;;5.43;3.27;;;;;;;10.42;100.00;100414.03;4903546;58;1140711;-71
2023/10/23 02:08:54;;;;;;;5.75;3.52;;;;;;;10.42;100.00;100413.55;4790399;60;1140855;-70
2023/10/23 02:13:59;;;;;;;11.78;4.28;;;;;;;10.44;100.00;100410.79;4790716;58;1140766;-73
2023/10/23 02:19:05;;;;;;;3.47;2.97;;;;;;;10.45;100.00;100406.70;4810325;58;1143038;-70
2023/10/23 02:24:11;;;;;;;5.23;3.27;;;;;;;10.48;100.00;100408.27;4871373;58;1140798;-70
2023/10/23 02:29:16;;;;;;;6.60;3.40;;;;;;;10.48;100.00;100405.15;4822650;58;1140874;-74
2023/10/23 02:34:22;;;;;;;4.93;3.33;;;;;;;10.50;100.00;100419.09;4766244;60;1141037;-75
2023/10/23 02:39:28;;;;;;;7.37;3.17;;;;;;;10.50;100.00;100422.22;4793539;59;1141100;-70
2023/10/23 02:44:35;;;;;;;8.53;3.37;;;;;;;10.48;100.00;100418.85;4712182;60;1141229;-70
2023/10/23 02:49:41;;;;;;;7.42;3.77;;;;;;;10.48;100.00;100427.63;4834454;59;1140869;-74
2023/10/23 02:54:46;;;;;;;8.55;3.90;;;;;;;10.52;100.00;100429.08;4742813;59;1141000;-71
2023/10/23 02:59:52;;;;;;;9.07;3.73;;;;;;;10.56;100.00;100429.65;4994231;56;1141001;-71
2023/10/23 03:04:58;;;;;;;8.23;4.13;;;;;;;10.65;100.00;100439.52;4798671;58;1141299;-71
2023/10/23 03:10:04;;;;;;;9.73;3.93;;;;;;;10.76;100.00;100443.95;4810349;59;1141073;-72
2023/10/23 03:15:10;;;;;;;9.33;4.70;;;;;;;10.83;100.00;100450.45;4909811;56;1141122;-73
2023/10/23 03:20:15;;;;;;;8.80;4.53;;;;;;;10.84;100.00;100449.01;4727835;57;1141324;-72
2023/10/23 03:25:21;;;;;;;7.57;3.83;;;;;;;10.79;100.00;100461.75;4697472;60;1140883;-74
2023/10/23 03:30:27;;;;;;;6.93;3.50;;;;;;;10.67;100.00;100457.92;4719977;59;1141405;-71
2023/10/23 03:35:34;;;;;;;5.57;3.30;;;;;;;10.60;100.00;100469.92;4710719;61;1140907;-73
2023/10/23 03:40:39;;;;;;;12.82;3.37;;;;;;;10.48;100.00;100475.22;4761415;60;1141164;-74
2023/10/23 03:45:45;;;;;;;6.70;3.50;;;;;;;10.39;100.00;100474.59;4796071;60;1152517;-72
2023/10/23 03:50:50;;;;;;;6.40;3.20;;;;;;;10.36;100.00;100476.18;4718278;59;1143583;-71
2023/10/23 03:55:57;;;;;;;8.05;4.15;;;;;;;10.36;100.00;100477.98;4909783;56;1140995;-71
2023/10/23 04:01:02;;;;;;;5.30;3.10;;;;;;;10.34;100.00;100482.54;4808504;58;1140920;-72
2023/10/23 04:06:08;;;;;;;9.47;3.30;;;;;;;10.34;100.00;100483.86;4910159;58;1140783;-74
2023/10/23 04:11:17;;;;;;;8.43;3.97;;;;;;;10.36;100.00;100485.91;4912136;58;1141081;-72
2023/10/23 04:16:22;;;;;;;18.00;3.93;;;;;;;10.35;100.00;100488.19;5001343;56;1140901;-71
2023/10/23 04:21:28;;;;;;;7.60;3.93;;;;;;;10.34;100.00;100490.47;4976960;56;1143056;-74
2023/10/23 04:26:33;;;;;;;10.63;3.30;;;;;;;10.27;100.00;100490.09;4978605;56;1140945;-71
2023/10/23 04:31:39;;;;;;;4.83;3.53;;;;;;;10.27;100.00;100488.77;4895223;57;1142948;-75
2023/10/23 04:36:45;;;;;;;4.30;3.03;;;;;;;10.30;100.00;100495.14;4794405;59;1141037;-73
2023/10/23 04:41:50;;;;;;;5.45;3.70;;;;;;;10.29;100.00;100501.39;4795110;60;1140650;-73
2023/10/23 04:46:56;;;;;;;7.67;3.05;;;;;;;10.28;100.00;100503.67;4716117;60;1141041;-73
2023/10/23 04:52:02;;;;;;;5.93;3.60;;;;;;;10.27;100.00;100494.53;4924757;57;1141355;-73
2023/10/23 04:57:08;;;;;;;5.03;3.53;;;;;;;10.23;100.00;100500.05;4915986;57;1141000;-73
2023/10/23 05:02:14;;;;;;;8.13;3.80;;;;;;;10.23;100.00;100500.55;4744056;59;1140977;-73
2023/10/23 05:07:19;;;;;;;10.23;3.63;;;;;;;10.23;100.00;100509.30;4830604;59;1140750;-75
2023/10/23 05:12:25;;;;;;;12.27;3.50;;;;;;;10.27;100.00;100519.64;4956689;57;1142826;-74
2023/10/23 05:17:30;;;;;;;6.70;3.53;;;;;;;10.28;100.00;100523.49;4792915;58;1142680;-73
2023/10/23 05:22:36;;;;;;;8.20;4.10;;;;;;;10.29;100.00;100529.63;4930414;57;1141013;-71
2023/10/23 05:27:42;;;;;;;9.30;5.13;;;;;;;10.29;100.00;100529.63;4792499;59;1141012;-74
2023/10/23 05:32:47;;;;;;;14.97;3.93;;;;;;;10.28;100.00;100536.70;4789616;60;1141100;-74
2023/10/23 05:37:53;;;;;;;7.23;4.57;;;;;;;10.33;100.00;100548.27;4791168;59;1143146;-72
2023/10/23 05:42:58;;;;;;;12.23;3.97;;;;;;;10.27;100.00;100557.97;4923366;57;1141163;-73
2023/10/23 05:48:04;;;;;;;10.10;4.63;;;;;;;10.21;100.00;100564.58;4786058;58;1143026;-72
2023/10/23 05:53:10;;;;;;;13.30;5.03;;;;;;;10.17;100.00;100569.69;4790579;59;1143084;-72
2023/10/23 05:58:15;;;;;;;16.50;5.23;;;;;;;10.17;100.00;100567.89;4807933;58;1143161;-74
2023/10/23 06:03:21;;;;;;;9.07;5.40;;;;;;;10.18;100.00;100575.34;4911249;58;1143025;-74
2023/10/23 06:08:26;;;;;;;11.70;4.90;;;;;;;10.13;100.00;100575.68;4829948;57;1140880;-73
2023/10/23 06:13:32;;;;;;;7.90;5.33;;;;;;;10.14;100.00;100576.05;4871742;58;1143018;-72
2023/10/23 06:18:39;;;;;;;7.63;5.60;;;;;;;10.18;100.00;100585.47;4791431;58;1141105;-71
2023/10/23 06:23:45;;;;;;;13.80;5.22;;;;;;;10.19;100.00;100583.20;4805954;59;1140907;-76
2023/10/23 06:28:51;;;;;;;10.17;4.67;;;;;;;10.21;100.00;100590.53;4717211;60;1142924;-75
2023/10/23 06:33:57;;;;;;;6.45;4.08;;;;;;;10.21;100.00;100590.53;4737429;61;1143196;-73
2023/10/23 06:39:02;;;;;;;5.72;3.77;;;;;;;10.25;100.00;100598.20;4767922;59;1140962;-75
2023/10/23 06:44:09;;;;;;;6.00;4.08;;;;;;;10.28;100.00;100601.95;4840054;58;1141205;-69
2023/10/23 06:49:15;;;;;;;7.20;3.83;;;;;;;10.39;100.00;100606.78;4826431;59;1140936;-76
2023/10/23 06:54:22;;;;;;;6.93;3.60;;;;;;;10.53;100.00;100609.26;4907027;57;1140954;-74
2023/10/23 06:59:29;;;;;;;14.17;3.70;;;;;;;10.67;100.00;100606.88;4791950;60;1140842;-75
2023/10/23 07:04:37;;;;;;;8.97;3.40;;;;;;;10.75;100.00;100609.77;4760237;59;1143218;-75
2023/10/23 07:09:42;;;;;;;5.43;3.90;;;;;;;10.82;100.00;100611.48;4819394;58;1141041;-72
2023/10/23 07:14:48;;;;;;;12.27;4.30;;;;;;;10.89;100.00;100615.31;4879740;57;1141038;-75
2023/10/23 07:19:54;;;;;;;9.73;3.83;;;;;;;11.02;100.00;100617.37;4792035;60;1143306;-75
2023/10/23 07:24:59;;;;;;;8.98;5.00;;;;;;;11.06;100.00;100625.92;4776083;60;1140864;-70
2023/10/23 07:30:06;;;;;;;6.87;3.80;;;;;;;11.15;100.00;100629.19;4775200;59;1140696;-74
2023/10/23 07:35:11;;;;;;;10.13;3.97;;;;;;;11.38;100.00;100626.05;4800116;59;1140988;-74
2023/10/23 07:40:17;;;;;;;4.17;3.27;;;;;;;11.52;100.00;100634.57;4830796;58;1143163;-76
2023/10/23 07:45:41;;;;;;;6.67;3.85;;;;;;;11.57;100.00;100627.11;4927934;57;1140945;-76
2023/10/23 07:50:47;;;;;;;7.67;3.60;;;;;;;11.57;100.00;100623.63;4791194;59;1141212;-73
2023/10/23 07:55:53;;;;;;;10.58;5.55;;;;;;;11.61;100.00;100635.15;4727042;59;1141008;-73
2023/10/23 08:01:10;;;;;;;8.75;4.22;;;;;;;11.66;100.00;100639.25;4745878;60;1143410;-72
2023/10/23 08:06:17;;;;;;;7.77;4.07;;;;;;;11.73;100.00;100633.34;4733789;58;1140711;-75
2023/10/23 08:11:22;;;;;;;8.57;4.83;;;;;;;11.81;100.00;100642.02;4821178;58;1141111;-76
2023/10/23 08:16:28;;;;;;;7.23;5.53;;;;;;;11.89;100.00;100641.78;4850721;58;1141047;-71
2023/10/23 08:21:34;;;;;;;7.70;4.10;;;;;;;11.80;100.00;100642.98;4719479;61;1141225;-73
2023/10/23 08:26:40;;;;;;;8.30;4.97;;;;;;;11.70;100.00;100647.31;4836145;58;1141081;-74
2023/10/23 08:31:48;;;;;;;9.28;6.47;;;;;;;11.69;100.00;100656.23;4821123;59;1140960;-76
2023/10/23 08:36:53;;;;;;;8.25;4.53;;;;;;;11.63;100.00;100655.74;4971818;57;1140927;-70
2023/10/23 08:42:16;;;;;;;10.33;4.87;;;;;;;11.62;100.00;100659.36;4922394;58;1140864;-71
2023/10/23 08:47:22;;;;;;;12.57;5.33;;;;;;;11.62;100.00;100650.08;4810580;58;1143236;-74
2023/10/23 08:52:31;;;;;;;12.70;5.00;;;;;;;11.76;100.00;100649.04;4784188;58;1142966;-74
2023/10/23 08:57:38;;;;;;;12.93;4.97;;;;;;;11.91;100.00;100653.59;4820980;58;1143106;-74
2023/10/23 09:02:43;;;;;;;10.47;4.63;;;;;;;11.95;100.00;100662.47;4839221;58;1142951;-73
2023/10/23 09:07:49;;;;;;;28.07;19.20;;;;;;;11.98;100.00;100665.36;4822293;58;1143168;-75
2023/10/23 09:13:00;;;;;;;29.03;11.40;;;;;;;12.00;100.00;100674.52;4845654;57;1144734;-72
2023/10/23 09:18:08;;;;;;;17.92;11.50;;;;;;;11.94;100.00;100674.52;4789890;58;1145241;-72
2023/10/23 09:23:15;;;;;;;14.40;8.07;;;;;;;11.97;100.00;100669.81;4786404;59;1145132;-73
2023/10/23 09:28:21;;;;;;;16.87;8.23;;;;;;;11.99;100.00;100665.72;4898442;57;1142896;-73
2023/10/23 09:33:27;;;;;;;12.83;6.93;;;;;;;12.04;100.00;100641.02;4902184;57;1142986;-70
2023/10/23 09:38:33;;;;;;;7.43;5.00;;;;;;;12.15;100.00;100659.52;4935265;57;1142920;-75
2023/10/23 09:43:48;;;;;;;7.13;5.27;;;;;;;12.33;100.00;100662.00;4786710;59;1140958;-71
2023/10/23 09:48:54;;;;;;;4.62;3.58;;;;;;;12.48;100.00;100655.06;4728699;60;1141248;-74
2023/10/23 09:54:02;;;;;;;14.07;4.80;;;;;;;12.60;100.00;100657.52;4734611;59;1141117;-70
2023/10/23 09:59:11;;;;;;;9.23;4.63;;;;;;;12.75;100.00;100650.08;4682242;60;1143632;-69
2023/10/23 10:04:32;;;;;;;4.93;3.53;;;;;;;12.95;100.00;100645.74;4717826;60;1141201;-71
2023/10/23 10:09:38;;;;;;;5.97;2.90;;;;;;;13.08;100.00;100645.05;4737043;60;1141760;-71
2023/10/23 10:14:47;;;;;;;4.43;2.87;;;;;;;13.17;100.00;100638.95;4779947;59;1140797;-73
2023/10/23 10:19:53;;;;;;;4.43;2.50;;;;;;;13.39;100.00;100639.28;4757329;59;1140999;-72
2023/10/23 10:24:59;;;;;;;7.00;3.25;;;;;;;13.46;100.00;100646.20;4772177;59;1141023;-74
2023/10/23 10:30:07;;;;;;;10.70;4.07;;;;;;;13.56;100.00;100641.78;4744513;60;1141171;-75
2023/10/23 10:35:18;;;;;;;14.07;4.37;;;;;;;13.63;100.00;100640.25;4905612;57;1143121;-73
2023/10/23 10:40:25;;;;;;;2.70;1.90;;;;;;;13.63;100.00;100641.09;4829343;57;1143039;-73
2023/10/23 10:45:32;;;;;;;8.57;2.50;;;;;;;13.65;100.00;100628.52;4781903;57;1140570;-74
2023/10/23 10:50:39;;;;;;;6.87;2.70;;;;;;;13.67;100.00;100625.23;4988107;56;1140987;-74
2023/10/23 10:55:47;;;;;;;5.10;2.70;;;;;;;13.86;100.00;100616.47;4984723;56;1140794;-71
2023/10/23 11:00:53;;;;;;;8.80;3.13;;;;;;;14.09;100.00;100617.03;4983901;57;1179515;-74
2023/10/23 11:05:58;;;;;;;7.33;2.77;;;;;;;14.17;100.00;100619.85;5001192;56;1141038;-72
2023/10/23 11:11:05;;;;;;;4.12;2.83;;;;;;;14.13;100.00;100613.13;4987772;56;1170405;-74
2023/10/23 11:16:12;;;;;;;10.47;2.87;;;;;;;13.91;100.00;100623.52;4917917;58;1140997;-75
2023/10/23 11:21:22;;;;;;;8.47;2.77;;;;;;;13.79;100.00;100623.78;4813559;57;1142853;-73
2023/10/23 11:26:26;;;;;;;10.73;2.53;;;;;;;13.77;100.00;100621.74;4793801;57;1141043;-72
2023/10/23 11:31:32;;;;;;;3.50;2.40;;;;;;;13.99;100.00;100609.55;4790805;59;1142900;-76
2023/10/23 11:36:37;;;;;;;4.53;2.47;;;;;;;14.38;100.00;100626.34;4809444;58;1140961;-73
2023/10/23 11:41:43;;;;;;;2.80;1.77;;;;;;;14.52;100.00;100619.29;4911727;57;1168899;-70
2023/10/23 11:46:49;;;;;;;6.20;2.10;;;;;;;14.67;100.00;100634.33;4951875;56;1140959;-71
2023/10/23 11:51:57;;;;;;;2.60;1.93;;;;;;;14.78;100.00;100632.86;5000965;56;1141130;-75
2023/10/23 11:57:03;;;;;;;4.72;1.95;;;;;;;14.96;100.00;100631.14;4804091;59;1141046;-73
2023/10/23 12:02:09;;;;;;;2.77;2.25;;;;;;;15.24;100.00;100626.70;4899617;58;1140959;-73
2023/10/23 12:07:14;;;;;;;6.13;2.70;;;;;;;15.54;100.00;100634.06;4912544;57;1141006;-76
2023/10/23 12:12:20;;;;;;;5.13;2.70;;;;;;;15.64;100.00;100623.72;4738995;59;1141634;-72
2023/10/23 12:17:26;;;;;;;2.17;1.93;;;;;;;15.75;100.00;100625.33;4931767;57;1140859;-75
2023/10/23 12:22:31;;;;;;;2.87;1.53;;;;;;;15.93;100.00;100632.03;4964874;57;1140923;-73
2023/10/23 12:27:38;;;;;;;2.67;1.60;;;;;;;16.06;100.00;100633.84;4788498;60;1141145;-74
2023/10/23 12:32:44;;;;;;;2.20;1.50;;;;;;;16.07;100.00;100641.69;4789262;59;1141126;-72
2023/10/23 12:37:49;;;;;;;2.13;1.03;;;;;;;16.02;100.00;100641.33;4809309;58;1140802;-74
2023/10/23 12:42:55;;;;;;;1.40;1.03;;;;;;;15.96;100.00;100643.74;4890085;58;1141707;-71
2023/10/23 12:48:01;;;;;;;2.37;1.40;;;;;;;15.68;100.00;100660.27;4900812;58;1244952;-73
2023/10/23 12:53:08;;;;;;;3.42;1.42;;;;;;;15.68;100.00;100653.11;4902974;57;1141622;-71
2023/10/23 12:58:14;;;;;;;5.00;1.67;;;;;;;15.63;100.00;100652.70;4863170;57;1249011;-76
2023/10/23 13:03:20;;;;;;;2.83;1.07;;;;;;;15.46;100.00;100655.62;4901996;57;1241754;-74
2023/10/23 13:08:25;;;;;;;3.10;1.20;;;;;;;15.60;100.00;100650.82;4914382;58;1141616;-71
2023/10/23 13:13:31;;;;;;;4.10;1.23;;;;;;;15.83;100.00;100642.78;4774051;59;1141631;-71
2023/10/23 13:18:36;;;;;;;2.90;1.20;;;;;;;16.01;100.00;100642.81;4736606;59;1140759;-70
2023/10/23 13:23:42;;;;;;;5.70;1.63;;;;;;;16.22;100.00;100636.66;4751914;59;1141043;-73
2023/10/23 13:28:48;;;;;;;3.67;1.77;;;;;;;16.37;100.00;100632.47;4733230;59;1217812;-70
2023/10/23 13:33:54;;;;;;;2.20;1.10;;;;;;;16.57;100.00;100625.62;4732320;59;1239108;-75
2023/10/23 13:39:05;;;;;;;2.12;1.20;;;;;;;16.70;100.00;100629.59;4846460;58;1245416;-72
2023/10/23 13:44:07;;;;;;;1.67;0.93;;;;;;;16.71;100.00;100624.60;4917723;57;1141666;-74
2023/10/23 13:49:13;;;;;;;1.33;1.20;;;;;;;16.77;100.00;100628.49;4887781;58;1182422;-71
2023/10/23 13:54:18;;;;;;;7.80;2.00;;;;;;;16.76;100.00;100620.97;4817948;59;1240849;-74
2023/10/23 13:59:24;;;;;;;1.80;1.17;;;;;;;16.91;100.00;100615.05;4848965;58;1248270;-73
2023/10/23 14:04:29;;;;;;;3.30;1.57;;;;;;;17.17;100.00;100612.70;4897238;57;1254263;-76
2023/10/23 14:09:35;;;;;;;3.13;2.20;;;;;;;17.51;100.00;100614.03;4824242;57;1258109;-71
2023/10/23 14:14:40;;;;;;;10.50;5.03;;;;;;;17.11;100.00;100605.84;4805968;59;1256627;-73
2023/10/23 14:19:46;;;;;;;4.08;1.80;;;;;;;16.76;100.00;100617.47;4709356;60;1259002;-75
2023/10/23 14:24:52;;;;;;;3.80;1.60;;;;;;;16.56;100.00;100618.11;4788289;59;1257510;-77
2023/10/23 14:29:57;;;;;;;3.17;1.40;;;;;;;17.13;100.00;100608.66;4901344;57;1256171;-75
2023/10/23 14:35:06;;;;;;;3.50;1.42;;;;;;;18.19;100.00;100611.20;4847098;58;1141003;-74
2023/10/23 14:40:12;;;;;;;4.55;1.90;;;;;;;17.68;100.00;100613.63;4819852;57;1241229;-74
2023/10/23 14:45:18;;;;;;;4.60;1.80;;;;;;;17.04;100.00;100616.30;4818950;58;1253702;-74
2023/10/23 14:50:23;;;;;;;2.70;1.83;;;;;;;16.66;100.00;100621.55;4901980;57;1256915;-74
2023/10/23 14:55:30;;;;;;;7.87;2.90;;;;;;;16.87;100.00;100622.54;4791739;57;1141359;-77
2023/10/23 15:00:36;;;;;;;9.98;5.50;;;;;;;17.68;100.00;100612.78;4904132;58;1141181;-72
2023/10/23 15:05:41;;;;;;;9.60;5.33;;;;;;;18.00;100.00;100604.00;4789911;59;1141124;-76
2023/10/23 15:10:47;;;;;;;9.95;5.85;;;;;;;17.69;100.00;100600.59;4900011;58;1140930;-74
2023/10/23 15:16:01;;;;;;;17.60;11.55;;;;;;;17.31;100.00;100597.05;4716390;60;1214809;-74
2023/10/23 15:21:08;;;;;;;36.10;22.58;;;;;;;16.94;100.00;100600.89;4816184;58;1145042;-73
2023/10/23 15:26:18;;;;;;;29.35;18.35;;;;;;;16.23;100.00;100603.65;4910689;58;1145274;-74
2023/10/23 15:31:23;;;;;;;37.80;19.37;;;;;;;16.23;100.00;100603.65;4758889;59;1192195;-73
2023/10/23 15:36:30;;;;;;;33.10;18.77;;;;;;;16.01;100.00;100622.30;4968042;57;1145115;-75
2023/10/23 15:41:36;;;;;;;33.43;20.20;;;;;;;15.52;100.00;100624.88;4983462;57;1145200;-74
2023/10/23 15:46:41;;;;;;;43.67;20.47;;;;;;;15.25;100.00;100623.55;4987183;56;1145030;-76
2023/10/23 15:51:47;;;;;;;68.57;30.17;;;;;;;15.04;100.00;100624.59;4867126;58;1145131;-77
2023/10/23 15:56:52;;;;;;;56.33;21.53;;;;;;;14.80;100.00;100622.08;4886042;58;1145159;-71
2023/10/23 16:01:59;;;;;;;46.13;18.73;;;;;;;14.61;100.00;100625.60;4784138;58;1145074;-74
2023/10/23 16:07:04;;;;;;;85.62;55.88;;;;;;;14.50;100.00;100629.75;4882515;58;1145283;-75
2023/10/23 16:12:10;;;;;;;89.22;51.73;;;;;;;14.43;100.00;100634.79;4802557;59;1144960;-73
2023/10/23 16:17:16;;;;;;;56.63;36.30;;;;;;;14.41;100.00;100633.59;4709395;60;1145018;-73
2023/10/23 16:22:22;;;;;;;58.33;29.37;;;;;;;14.31;100.00;100640.72;4736760;59;1145194;-73
2023/10/23 16:27:28;;;;;;;75.07;36.43;;;;;;;14.25;100.00;100643.08;4796597;59;1145096;-76
2023/10/23 16:32:34;;;;;;;230.57;92.33;;;;;;;14.12;100.00;100639.86;4723107;59;1144963;-77
2023/10/23 16:37:40;;;;;;;150.03;60.67;;;;;;;13.96;100.00;100630.61;4786495;59;1147251;-73
2023/10/23 16:42:46;;;;;;;467.60;229.07;;;;;;;13.93;100.00;100635.35;4908577;58;1147214;-73
2023/10/23 16:47:52;;;;;;;132.27;61.03;;;;;;;13.86;100.00;100631.09;4747798;60;1149270;-72
2023/10/23 16:53:00;;;;;;;59.70;28.13;;;;;;;13.74;100.00;100626.87;4894030;57;1148108;-73
2023/10/23 16:58:05;;;;;;;18.20;9.50;;;;;;;13.63;100.00;100623.81;4821166;58;1145312;-73
2023/10/23 17:03:10;;;;;;;32.05;14.33;;;;;;;13.40;100.00;100634.31;4862748;57;1142959;-74
2023/10/23 17:08:16;;;;;;;21.63;12.07;;;;;;;13.17;100.00;100631.48;4790104;60;1145280;-72
2023/10/23 17:13:22;;;;;;;22.87;16.03;;;;;;;13.02;100.00;100622.98;4790260;59;1145040;-73
2023/10/23 17:18:27;;;;;;;20.57;11.93;;;;;;;12.94;100.00;100622.83;4807486;60;1145076;-71
2023/10/23 17:23:34;;;;;;;77.73;43.87;;;;;;;12.87;100.00;100630.94;4882580;58;1145366;-72
2023/10/23 17:28:39;;;;;;;93.05;46.92;;;;;;;12.78;100.00;100627.27;4904012;58;1145014;-72
2023/10/23 17:33:45;;;;;;;120.00;53.07;;;;;;;12.75;100.00;100626.20;4902245;58;1144832;-73
2023/10/23 17:38:53;;;;;;;103.03;48.83;;;;;;;12.73;100.00;100621.50;4869116;58;1147076;-72
2023/10/23 17:43:59;;;;;;;130.70;67.47;;;;;;;12.67;100.00;100616.73;4856673;56;1147241;-72
2023/10/23 17:49:05;;;;;;;58.33;34.95;;;;;;;12.44;100.00;100616.00;4894388;57;1147150;-72
2023/10/23 17:54:13;;;;;;;47.55;31.20;;;;;;;12.17;100.00;100605.89;4862959;58;1144868;-69
2023/10/23 17:59:18;;;;;;;25.13;17.03;;;;;;;11.97;100.00;100611.50;4758578;58;1145291;-69
2023/10/23 18:04:24;;;;;;;60.73;26.90;;;;;;;11.96;100.00;100612.95;4711165;60;1145059;-70
2023/10/23 18:09:29;;;;;;;75.13;36.37;;;;;;;11.97;100.00;100608.00;4931635;57;1144926;-70
2023/10/23 18:14:35;;;;;;;277.93;123.57;;;;;;;11.93;100.00;100610.06;4912860;58;1144989;-68
2023/10/23 18:19:41;;;;;;;138.77;80.20;;;;;;;11.69;100.00;100606.73;4739816;58;1149294;-74
2023/10/23 18:24:50;;;;;;;137.53;82.17;;;;;;;11.56;100.00;100607.37;4808033;59;1147307;-73
2023/10/23 18:29:56;;;;;;;80.47;43.50;;;;;;;11.50;100.00;100610.02;4897682;57;1147209;-76
2023/10/23 18:35:01;;;;;;;131.03;67.05;;;;;;;11.52;100.00;100612.54;4791460;59;1145045;-76
2023/10/23 18:40:08;;;;;;;177.02;85.57;;;;;;;11.44;100.00;100599.92;4925291;57;1147385;-74
2023/10/23 18:45:14;;;;;;;175.05;79.62;;;;;;;11.44;100.00;100599.92;4926904;56;1147259;-74
2023/10/23 18:50:19;;;;;;;138.83;62.30;;;;;;;11.47;100.00;100607.60;4863266;58;1147557;-75
2023/10/23 18:55:25;;;;;;;130.70;53.17;;;;;;;11.43;100.00;100612.80;4869436;58;1147280;-77
2023/10/23 19:00:31;;;;;;;131.90;69.13;;;;;;;11.26;100.00;100612.81;4895754;58;1146774;-76
2023/10/23 19:05:37;;;;;;;83.93;41.47;;;;;;;11.11;100.00;100610.05;4725752;59;1147132;-72
2023/10/23 19:10:43;;;;;;;123.20;63.37;;;;;;;10.98;100.00;100601.87;4787858;60;1145000;-72
2023/10/23 19:15:57;;;;;;;127.77;60.17;;;;;;;10.89;100.00;100603.41;4891409;57;1147141;-77
2023/10/23 19:21:13;;;;;;;86.83;37.43;;;;;;;10.82;100.00;100597.77;4750738;59;1147054;-72
2023/10/23 19:26:19;;;;;;;60.37;26.50;;;;;;;10.77;100.00;100600.39;4859117;56;1144936;-73
2023/10/23 19:31:25;;;;;;;44.00;20.53;;;;;;;10.82;100.00;100601.73;4966306;56;1144994;-75
2023/10/23 19:36:31;;;;;;;73.23;31.77;;;;;;;10.78;100.00;100592.34;4716756;58;1144821;-77
2023/10/23 19:41:50;;;;;;;56.93;26.80;;;;;;;10.77;100.00;100596.42;4872660;57;1145350;-77
2023/10/23 19:46:57;;;;;;;43.33;20.70;;;;;;;10.74;100.00;100596.17;4898373;57;1145162;-77
2023/10/23 19:52:04;;;;;;;68.00;33.10;;;;;;;10.66;100.00;100605.67;4801928;59;1145024;-73
2023/10/23 19:57:10;;;;;;;91.37;42.65;;;;;;;10.55;100.00;100606.47;4874319;58;1145105;-73
2023/10/23 20:02:16;;;;;;;50.03;26.23;;;;;;;10.42;100.00;100598.62;4752906;59;1145184;-72
2023/10/23 20:07:22;;;;;;;36.73;17.87;;;;;;;10.27;100.00;100605.07;4889507;57;1145009;-75
2023/10/23 20:12:28;;;;;;;45.93;20.30;;;;;;;10.18;100.00;100609.70;4898313;57;1145344;-73
2023/10/23 20:17:34;;;;;;;146.57;68.00;;;;;;;10.05;100.00;100605.81;4908495;58;1145167;-75
2023/10/23 20:22:39;;;;;;;75.23;36.33;;;;;;;9.94;100.00;100608.86;4924458;58;1147007;-74
2023/10/23 20:27:45;;;;;;;50.20;24.27;;;;;;;9.90;100.00;100602.98;4901743;58;1143033;-75
2023/10/23 20:32:51;;;;;;;45.10;22.97;;;;;;;9.78;100.00;100605.17;4911823;58;1143147;-74
2023/10/23 20:37:57;;;;;;;171.10;63.83;;;;;;;9.68;100.00;100608.12;4906798;58;1142986;-73
2023/10/23 20:43:02;;;;;;;164.27;60.63;;;;;;;9.60;100.00;100603.41;4928617;58;1145401;-74
2023/10/23 20:48:08;;;;;;;52.55;20.92;;;;;;;9.54;100.00;100606.48;4903181;57;1145236;-73
2023/10/23 20:53:13;;;;;;;37.90;16.20;;;;;;;9.50;100.00;100590.02;4895936;57;1142966;-73
2023/10/23 20:58:20;;;;;;;50.67;23.83;;;;;;;9.45;100.00;100598.77;4924324;57;1143139;-73
2023/10/23 21:03:25;;;;;;;64.00;27.40;;;;;;;9.44;100.00;100590.95;4791202;60;1142956;-73
2023/10/23 21:08:37;;;;;;;56.00;25.03;;;;;;;9.46;100.00;100588.56;4742068;59;1143939;-71
2023/10/23 21:13:43;;;;;;;44.87;18.97;;;;;;;9.39;100.00;100580.70;4801747;57;1142931;-73
2023/10/23 21:18:48;;;;;;;40.43;18.67;;;;;;;9.10;100.00;100584.09;4751198;58;1142948;-73
2023/10/23 21:23:54;;;;;;;41.33;21.02;;;;;;;8.92;100.00;100582.74;4745106;58;1142938;-73
2023/10/23 21:29:25;;;;;;;56.77;26.97;;;;;;;9.02;100.00;100581.61;4730559;59;1143174;-72
2023/10/23 21:34:31;;;;;;;39.83;17.27;;;;;;;9.08;100.00;100569.32;4903161;58;1143097;-72
2023/10/23 21:39:37;;;;;;;26.20;14.53;;;;;;;9.03;100.00;100563.04;4891647;58;1143117;-72
2023/10/23 21:44:43;;;;;;;19.70;11.70;;;;;;;8.95;100.00;100569.82;4903606;57;1143128;-76
2023/10/23 21:49:49;;;;;;;34.23;14.20;;;;;;;8.95;100.00;100566.71;4942049;57;1143078;-72
2023/10/23 21:54:55;;;;;;;26.40;13.63;;;;;;;9.01;100.00;100567.58;4922951;56;1143001;-74
2023/10/23 22:00:01;;;;;;;47.90;22.70;;;;;;;9.05;100.00;100562.94;4707267;60;1143121;-72
2023/10/23 22:05:09;;;;;;;59.80;27.70;;;;;;;9.08;100.00;100558.30;5002153;56;1143313;-73
2023/10/23 22:10:16;;;;;;;79.53;35.45;;;;;;;9.02;100.00;100551.28;4987333;57;1143262;-76
2023/10/23 22:15:22;;;;;;;56.03;23.93;;;;;;;8.93;100.00;100551.94;4922047;56;1143045;-72
2023/10/23 22:20:28;;;;;;;44.07;19.17;;;;;;;8.80;100.00;100543.56;4809650;58;1143009;-72
2023/10/23 22:25:33;;;;;;;42.27;18.73;;;;;;;8.80;100.00;100543.56;4911504;57;1143141;-75
2023/10/23 22:30:39;;;;;;;32.47;14.43;;;;;;;8.75;100.00;100536.45;4913150;57;1143348;-74
2023/10/23 22:35:45;;;;;;;25.87;13.83;;;;;;;8.77;100.00;100530.59;4832306;58;1143005;-74
2023/10/23 22:40:51;;;;;;;14.00;9.23;;;;;;;8.74;100.00;100530.80;4903811;57;1143050;-75